createdAt,value
2022-09-06T00:01:52.449Z,10.95
2022-09-06T00:04:33.162Z,10.95
2022-09-06T00:07:13.600Z,10.94
2022-09-06T00:10:43.290Z,10.91
2022-09-06T00:13:44.228Z,10.94
2022-09-06T00:16:35.758Z,10.95
2022-09-06T00:19:07.402Z,10.95
2022-09-06T00:22:16.663Z,10.95
2022-09-06T00:25:38.061Z,10.96
2022-09-06T00:28:48.189Z,10.95
2022-09-06T00:31:35.542Z,10.92
2022-09-06T00:34:34.335Z,10.88
2022-09-06T00:37:41.288Z,10.87
2022-09-06T00:40:53.217Z,10.87
2022-09-06T00:43:34.525Z,10.86
2022-09-06T00:46:51.387Z,10.86
2022-09-06T00:50:05.432Z,10.85
2022-09-06T00:53:08.693Z,10.82
2022-09-06T00:55:45.853Z,10.77
2022-09-06T00:58:47.452Z,10.74
2022-09-06T01:01:39.395Z,10.73
2022-09-06T01:04:29.100Z,10.74
2022-09-06T01:08:08.318Z,10.73
2022-09-06T01:10:57.659Z,10.71
2022-09-06T01:14:21.804Z,10.72
2022-09-06T01:17:56.956Z,10.70
2022-09-06T01:20:42.119Z,10.73
2022-09-06T01:24:04.831Z,10.79
2022-09-06T01:27:10.424Z,10.88
2022-09-06T01:30:20.681Z,10.97
2022-09-06T01:33:14.246Z,11.03
2022-09-06T01:37:06.219Z,11.10
2022-09-06T01:40:30.709Z,11.17
2022-09-06T01:43:14.239Z,11.22
2022-09-06T01:46:18.042Z,11.28
2022-09-06T01:49:23.606Z,11.32
2022-09-06T01:52:36.835Z,11.37
2022-09-06T01:55:55.715Z,11.44
2022-09-06T01:58:53.025Z,11.51
2022-09-06T02:01:47.391Z,11.56
2022-09-06T02:04:47.230Z,11.61
2022-09-06T02:08:01.922Z,11.63
2022-09-06T02:11:10.895Z,11.62
2022-09-06T02:13:59.630Z,11.61
2022-09-06T02:17:03.686Z,11.62
2022-09-06T02:20:07.679Z,11.61
2022-09-06T02:23:06.821Z,11.62
2022-09-06T02:26:03.858Z,11.66
2022-09-06T02:29:11.589Z,11.68
2022-09-06T02:32:00.105Z,11.72
2022-09-06T02:34:48.176Z,11.76
2022-09-06T02:37:43.618Z,11.77
2022-09-06T02:41:13.073Z,11.77
2022-09-06T02:44:02.062Z,11.76
2022-09-06T02:46:45.363Z,11.77
2022-09-06T02:49:32.685Z,11.77
2022-09-06T02:52:23.055Z,11.79
2022-09-06T02:54:55.424Z,11.79
2022-09-06T02:57:42.778Z,11.78
2022-09-06T03:00:27.742Z,11.80
2022-09-06T03:03:13.940Z,11.84
2022-09-06T03:06:03.924Z,11.85
2022-09-06T03:08:55.855Z,11.86
2022-09-06T03:11:25.121Z,11.86
2022-09-06T03:14:12.888Z,11.88
2022-09-06T03:16:54.916Z,11.89
2022-09-06T03:19:27.031Z,11.89
2022-09-06T03:22:39.638Z,11.91
2022-09-06T03:25:16.436Z,11.92
2022-09-06T03:28:15.541Z,11.93
2022-09-06T03:30:53.700Z,11.93
2022-09-06T03:33:51.586Z,11.94
2022-09-06T03:36:35.770Z,11.96
2022-09-06T03:39:15.996Z,11.95
2022-09-06T03:42:28.784Z,11.96
2022-09-06T03:45:32.038Z,11.96
2022-09-06T03:48:11.404Z,11.96
2022-09-06T03:51:03.475Z,11.96
2022-09-06T03:54:24.518Z,11.97
2022-09-06T03:57:14.648Z,11.97
2022-09-06T04:00:27.431Z,12.00
2022-09-06T04:03:09.289Z,12.02
2022-09-06T04:06:27.400Z,12.01
2022-09-06T04:09:59.309Z,11.95
2022-09-06T04:12:39.846Z,11.94
2022-09-06T04:16:09.350Z,11.92
2022-09-06T04:18:49.878Z,11.92
2022-09-06T04:21:22.324Z,11.89
2022-09-06T04:24:43.279Z,11.89
2022-09-06T04:27:35.398Z,11.90
2022-09-06T04:30:33.043Z,11.92
2022-09-06T04:33:50.522Z,11.96
2022-09-06T04:36:33.130Z,12.00
2022-09-06T04:39:18.053Z,12.04
2022-09-06T04:42:09.525Z,12.08
2022-09-06T04:45:21.575Z,12.11
2022-09-06T04:48:05.491Z,12.15
2022-09-06T04:51:03.303Z,12.17
2022-09-06T04:53:41.000Z,12.19
2022-09-06T04:56:42.782Z,12.22
2022-09-06T04:59:58.202Z,12.25
2022-09-06T05:03:14.445Z,12.28
2022-09-06T05:06:14.255Z,12.31
2022-09-06T05:08:49.364Z,12.35
2022-09-06T05:11:21.270Z,12.39
2022-09-06T05:14:15.954Z,12.43
2022-09-06T05:17:15.671Z,12.47
2022-09-06T05:20:14.726Z,12.51
2022-09-06T05:22:54.438Z,12.55
2022-09-06T05:25:31.591Z,12.57
2022-09-06T05:28:08.716Z,12.57
2022-09-06T05:30:51.346Z,12.60
2022-09-06T05:33:30.980Z,12.62
2022-09-06T05:36:23.884Z,12.65
2022-09-06T05:39:22.092Z,12.69
2022-09-06T05:42:21.740Z,12.72
2022-09-06T05:45:02.534Z,12.75
2022-09-06T05:48:00.105Z,12.81
2022-09-06T05:50:46.925Z,12.88
2022-09-06T05:53:58.780Z,12.95
2022-09-06T05:56:38.766Z,13.02
2022-09-06T05:59:10.574Z,13.09
2022-09-06T06:01:58.598Z,13.15
2022-09-06T06:05:01.862Z,13.21
2022-09-06T06:07:30.445Z,13.28
2022-09-06T06:10:09.452Z,13.35
2022-09-06T06:13:01.199Z,13.45
2022-09-06T06:15:44.792Z,13.54
2022-09-06T06:18:24.034Z,13.65
2022-09-06T06:21:44.975Z,13.78
2022-09-06T06:24:39.720Z,13.96
2022-09-06T06:27:23.734Z,14.10
2022-09-06T06:30:09.707Z,14.23
2022-09-06T06:33:03.276Z,14.39
2022-09-06T06:36:05.241Z,14.51
2022-09-06T06:39:17.348Z,14.61
2022-09-06T06:41:51.054Z,14.68
2022-09-06T06:44:39.348Z,14.71
2022-09-06T06:47:11.788Z,14.74
2022-09-06T06:49:52.595Z,14.77
2022-09-06T06:52:24.565Z,14.79
2022-09-06T06:55:01.376Z,14.81
2022-09-06T06:57:44.735Z,14.83
2022-09-06T07:00:39.182Z,14.92
2022-09-06T07:03:32.662Z,14.97
2022-09-06T07:06:16.405Z,15.02
2022-09-06T07:08:46.622Z,15.05
2022-09-06T07:11:19.478Z,15.09
2022-09-06T07:13:50.549Z,15.11
2022-09-06T07:16:22.588Z,15.13
2022-09-06T07:18:53.047Z,15.17
2022-09-06T07:24:10.315Z,15.17
2022-09-06T07:26:40.325Z,15.16
2022-09-06T07:29:12.153Z,15.15
2022-09-06T07:34:33.898Z,15.11
2022-09-06T07:37:02.806Z,15.10
2022-09-06T07:39:33.306Z,15.09
2022-09-06T07:42:04.997Z,15.09
2022-09-06T07:44:33.800Z,15.07
2022-09-06T07:55:35.874Z,15.10
2022-09-06T07:58:04.978Z,15.15
2022-09-06T08:00:33.980Z,15.22
2022-09-06T08:03:07.571Z,15.27
2022-09-06T08:11:15.612Z,15.40
2022-09-06T08:13:45.014Z,15.45
2022-09-06T08:16:15.743Z,15.49
2022-09-06T08:18:47.814Z,15.55
2022-09-06T08:21:17.015Z,15.62
2022-09-06T08:23:49.820Z,15.70
2022-09-06T08:26:23.695Z,15.78
2022-09-06T08:29:03.005Z,15.85
2022-09-06T08:31:33.338Z,15.88
2022-09-06T08:34:02.939Z,15.92
2022-09-06T08:36:32.460Z,15.95
2022-09-06T08:39:06.468Z,16.00
2022-09-06T08:42:04.150Z,16.06
2022-09-06T08:44:57.639Z,16.14
2022-09-06T08:47:27.565Z,16.18
2022-09-06T08:50:02.556Z,16.25
2022-09-06T08:53:16.338Z,16.36
2022-09-06T08:55:55.081Z,16.43
2022-09-06T08:58:46.019Z,16.50
2022-09-06T09:01:27.733Z,16.58
2022-09-06T09:04:03.304Z,16.65
2022-09-06T09:06:32.982Z,16.73
2022-09-06T09:09:06.649Z,16.84
2022-09-06T09:11:36.542Z,16.95
2022-09-06T09:14:05.390Z,17.03
2022-09-06T09:16:35.106Z,17.12
2022-09-06T09:19:05.766Z,17.17
2022-09-06T09:21:40.745Z,17.25
2022-09-06T09:24:12.315Z,17.34
2022-09-06T09:26:57.872Z,17.38
2022-09-06T09:29:29.517Z,17.50
2022-09-06T09:32:00.204Z,17.65
2022-09-06T09:34:34.765Z,17.80
2022-09-06T09:40:28.711Z,18.05
2022-09-06T09:43:29.884Z,18.16
2022-09-06T09:46:16.768Z,18.28
2022-09-06T09:49:01.328Z,18.45
2022-09-06T09:51:32.801Z,18.62
2022-09-06T09:54:04.812Z,18.77
2022-09-06T09:56:52.998Z,18.88
2022-09-06T09:59:26.145Z,19.07
2022-09-06T10:02:01.719Z,19.18
2022-09-06T10:04:43.218Z,19.32
2022-09-06T10:07:18.476Z,19.46
2022-09-06T10:09:59.726Z,19.63
2022-09-06T10:12:33.489Z,19.86
2022-09-06T10:15:06.910Z,20.03
2022-09-06T10:17:50.192Z,20.16
2022-09-06T10:20:33.893Z,20.28
2022-09-06T10:23:12.613Z,20.40
2022-09-06T10:25:55.930Z,20.56
2022-09-06T10:28:44.414Z,20.76
2022-09-06T10:31:42.457Z,20.96
2022-09-06T10:34:35.883Z,21.21
2022-09-06T10:37:10.741Z,21.47
2022-09-06T10:40:07.165Z,21.66
2022-09-06T10:42:50.437Z,21.80
2022-09-06T10:45:24.847Z,21.99
2022-09-06T10:48:03.018Z,22.24
2022-09-06T10:50:46.511Z,22.50
2022-09-06T10:53:20.802Z,22.66
2022-09-06T10:56:01.845Z,22.88
2022-09-06T11:01:42.171Z,23.38
2022-09-06T11:04:20.394Z,23.63
2022-09-06T11:06:53.773Z,23.83
2022-09-06T11:09:33.019Z,23.99
2022-09-06T11:12:22.877Z,24.28
2022-09-06T11:14:52.420Z,24.66
2022-09-06T11:17:41.651Z,24.91
2022-09-06T11:20:35.145Z,25.12
2022-09-06T11:23:37.733Z,25.45
2022-09-06T11:26:55.543Z,25.84
2022-09-06T11:29:27.527Z,26.18
2022-09-06T11:34:57.026Z,26.64
2022-09-06T11:37:36.932Z,26.80
2022-09-06T11:40:32.118Z,27.07
2022-09-06T11:43:01.482Z,27.40
2022-09-06T11:45:53.003Z,27.62
2022-09-06T11:48:24.790Z,28.02
2022-09-06T11:50:59.214Z,28.27
2022-09-06T11:53:34.435Z,28.71
2022-09-06T11:56:03.345Z,29.04
2022-09-06T11:58:38.014Z,29.22
2022-09-06T12:01:12.968Z,29.37
2022-09-06T12:04:10.253Z,29.61
2022-09-06T12:07:12.497Z,29.89
2022-09-06T12:09:43.059Z,30.24
2022-09-06T12:12:16.778Z,30.49
2022-09-06T12:14:49.511Z,30.75
2022-09-06T12:17:20.478Z,31.12
2022-09-06T12:19:52.092Z,31.34
2022-09-06T12:22:29.708Z,31.47
2022-09-06T12:25:35.214Z,31.73
2022-09-06T12:28:23.784Z,32.00
2022-09-06T12:30:53.719Z,32.19
2022-09-06T12:33:39.027Z,32.44
2022-09-06T12:36:29.886Z,32.68
2022-09-06T12:39:16.502Z,32.82
2022-09-06T12:41:50.682Z,32.93
2022-09-06T12:44:28.315Z,33.04
2022-09-06T12:47:03.417Z,33.09
2022-09-06T12:49:32.340Z,33.10
2022-09-06T12:52:27.401Z,33.19
2022-09-06T12:54:56.078Z,33.40
2022-09-06T12:57:26.611Z,33.54
2022-09-06T12:59:58.625Z,33.64
2022-09-06T13:02:43.110Z,33.77
2022-09-06T13:05:13.632Z,33.95
2022-09-06T13:07:49.222Z,34.06
2022-09-06T13:10:22.525Z,34.09
2022-09-06T13:12:53.208Z,34.09
2022-09-06T13:15:31.567Z,34.12
2022-09-06T13:18:22.702Z,34.19
2022-09-06T13:21:00.426Z,34.28
2022-09-06T13:23:31.120Z,34.41
2022-09-06T13:25:59.881Z,34.48
2022-09-06T13:28:30.093Z,34.55
2022-09-06T13:31:18.531Z,34.62
2022-09-06T13:33:57.398Z,34.74
2022-09-06T13:36:32.910Z,34.86
2022-09-06T13:39:04.140Z,34.94
2022-09-06T13:41:37.606Z,34.99
2022-09-06T13:44:18.682Z,35.11
2022-09-06T13:46:47.512Z,35.19
2022-09-06T13:49:16.157Z,35.14
2022-09-06T13:51:44.842Z,34.79
2022-09-06T13:54:14.616Z,34.23
2022-09-06T13:56:46.253Z,33.79
2022-09-06T13:59:15.319Z,33.49
2022-09-06T14:01:47.382Z,33.28
2022-09-06T14:04:21.490Z,32.98
2022-09-06T14:06:50.160Z,32.79
2022-09-06T14:09:19.271Z,32.68
2022-09-06T14:11:48.480Z,32.45
2022-09-06T14:14:18.730Z,32.24
2022-09-06T14:16:48.024Z,32.06
2022-09-06T14:19:17.283Z,31.82
2022-09-06T14:21:46.147Z,31.62
2022-09-06T14:24:14.990Z,31.48
2022-09-06T14:26:43.339Z,31.32
2022-09-06T14:29:12.024Z,31.18
2022-09-06T14:31:41.021Z,31.00
2022-09-06T14:34:09.704Z,30.78
2022-09-06T14:36:38.723Z,30.64
2022-09-06T14:39:07.274Z,30.53
2022-09-06T14:41:35.658Z,30.41
2022-09-06T14:44:04.651Z,30.34
2022-09-06T14:46:33.273Z,30.19
2022-09-06T14:49:06.371Z,30.14
2022-09-06T14:51:37.110Z,30.02
2022-09-06T14:54:13.920Z,29.92
2022-09-06T14:56:43.988Z,29.80
2022-09-06T14:59:13.458Z,29.70
2022-09-06T15:01:42.428Z,29.69
2022-09-06T15:04:14.717Z,29.63
2022-09-06T15:06:47.358Z,29.53
2022-09-06T15:09:17.555Z,29.46
2022-09-06T15:11:51.478Z,29.39
2022-09-06T15:14:30.046Z,29.30
2022-09-06T15:17:00.343Z,29.12
2022-09-06T15:19:30.283Z,28.93
2022-09-06T15:21:59.148Z,28.85
2022-09-06T15:24:28.896Z,28.76
2022-09-06T15:26:58.039Z,28.67
2022-09-06T15:29:27.606Z,28.57
2022-09-06T15:31:57.531Z,28.41
2022-09-06T15:34:26.907Z,28.26
2022-09-06T15:36:56.926Z,28.10
2022-09-06T15:39:26.028Z,28.07
2022-09-06T15:41:58.700Z,27.96
2022-09-06T15:44:27.778Z,27.90
2022-09-06T15:47:07.256Z,27.72
2022-09-06T15:49:37.439Z,27.60
2022-09-06T15:52:07.696Z,27.49
2022-09-06T15:54:57.530Z,27.31
2022-09-06T15:57:35.489Z,27.13
2022-09-06T16:00:05.477Z,27.01
2022-09-06T16:02:34.457Z,26.88
2022-09-06T16:05:08.917Z,26.71
2022-09-06T16:07:41.263Z,26.59
2022-09-06T16:10:20.598Z,26.48
2022-09-06T16:12:52.107Z,26.34
2022-09-06T16:15:26.575Z,26.20
2022-09-06T16:18:05.702Z,26.11
2022-09-06T16:20:38.215Z,25.98
2022-09-06T16:23:09.429Z,25.86
2022-09-06T16:25:38.546Z,25.70
2022-09-06T16:28:07.189Z,25.58
2022-09-06T16:30:41.083Z,25.37
2022-09-06T16:33:13.838Z,25.14
2022-09-06T16:35:43.404Z,24.79
2022-09-06T16:38:15.155Z,24.35
2022-09-06T16:40:46.396Z,23.79
2022-09-06T16:43:35.903Z,23.22
2022-09-06T16:46:05.497Z,22.76
2022-09-06T16:48:38.272Z,22.33
2022-09-06T16:51:15.942Z,21.93
2022-09-06T16:53:47.557Z,21.53
2022-09-06T16:56:18.532Z,21.16
2022-09-06T16:58:56.458Z,20.81
2022-09-06T17:01:27.234Z,20.45
2022-09-06T17:03:56.221Z,20.12
2022-09-06T17:06:25.177Z,19.85
2022-09-06T17:08:58.730Z,19.61
2022-09-06T17:11:29.311Z,19.36
2022-09-06T17:13:58.302Z,19.11
2022-09-06T17:16:45.383Z,18.83
2022-09-06T17:19:14.820Z,18.54
2022-09-06T17:21:46.761Z,18.30
2022-09-06T17:24:15.802Z,18.10
2022-09-06T17:26:44.256Z,17.91
2022-09-06T17:29:13.156Z,17.70
2022-09-06T17:31:42.009Z,17.47
2022-09-06T17:34:11.769Z,17.30
2022-09-06T17:36:42.994Z,17.14
2022-09-06T17:39:21.407Z,16.97
2022-09-06T17:41:56.283Z,16.80
2022-09-06T17:44:26.971Z,16.64
2022-09-06T17:47:14.373Z,16.50
2022-09-06T17:49:44.110Z,16.34
2022-09-06T17:52:14.020Z,16.22
2022-09-06T17:54:44.842Z,16.09
2022-09-06T17:57:14.025Z,15.97
2022-09-06T17:59:43.149Z,15.84
2022-09-06T18:02:12.147Z,15.74
2022-09-06T18:04:41.143Z,15.62
2022-09-06T18:07:10.047Z,15.50
2022-09-06T18:09:40.610Z,15.40
2022-09-06T18:12:09.753Z,15.27
2022-09-06T18:14:38.643Z,15.16
2022-09-06T18:17:09.304Z,15.09
2022-09-06T18:19:38.679Z,15.02
2022-09-06T18:22:07.891Z,14.96
2022-09-06T18:24:39.122Z,14.90
2022-09-06T18:27:14.462Z,14.84
2022-09-06T18:29:48.574Z,14.78
2022-09-06T18:32:17.875Z,14.73
2022-09-06T18:34:52.298Z,14.67
2022-09-06T18:37:21.948Z,14.62
2022-09-06T18:39:51.060Z,14.58
2022-09-06T18:42:22.243Z,14.53
2022-09-06T18:44:51.750Z,14.47
2022-09-06T18:47:23.917Z,14.46
2022-09-06T18:50:22.337Z,14.43
2022-09-06T18:52:51.847Z,14.39
2022-09-06T18:55:26.326Z,14.36
2022-09-06T18:58:00.892Z,14.32
2022-09-06T19:00:38.737Z,14.27
2022-09-06T19:03:15.482Z,14.20
2022-09-06T19:05:47.980Z,14.15
2022-09-06T19:08:17.610Z,14.10
2022-09-06T19:10:47.111Z,14.05
2022-09-06T19:13:19.406Z,13.99
2022-09-06T19:16:17.188Z,13.92
2022-09-06T19:18:50.131Z,13.84
2022-09-06T19:21:25.053Z,13.76
2022-09-06T19:24:01.027Z,13.70
2022-09-06T19:26:38.524Z,13.64
2022-09-06T19:29:39.974Z,13.60
2022-09-06T19:32:29.008Z,13.53
2022-09-06T19:35:50.987Z,13.50
2022-09-06T19:39:03.154Z,13.45
2022-09-06T19:42:06.163Z,13.38
2022-09-06T19:45:16.633Z,13.32
2022-09-06T19:48:58.752Z,13.27
2022-09-06T19:51:37.969Z,13.22
2022-09-06T20:09:42.498Z,12.91
2022-09-06T20:13:00.958Z,12.83
2022-09-06T20:16:31.742Z,12.75
2022-09-06T20:19:23.379Z,12.68
2022-09-06T20:22:23.166Z,12.63
2022-09-06T20:25:49.260Z,12.60
2022-09-06T20:28:58.599Z,12.55
2022-09-06T20:32:16.055Z,12.49
2022-09-06T20:34:53.705Z,12.45
2022-09-06T20:38:03.265Z,12.42
2022-09-06T20:41:34.114Z,12.37
2022-09-06T20:45:16.011Z,12.32
2022-09-06T20:48:35.429Z,12.27
2022-09-06T20:51:56.195Z,12.21
2022-09-06T20:54:44.611Z,12.19
2022-09-06T20:57:19.475Z,12.17
2022-09-06T21:00:19.989Z,12.15
2022-09-06T21:03:17.669Z,12.12
2022-09-06T21:06:30.265Z,12.08
2022-09-06T21:09:45.870Z,12.05
2022-09-06T21:13:06.985Z,12.00
2022-09-06T21:16:14.060Z,11.97
2022-09-06T21:19:29.000Z,11.94
2022-09-06T21:22:40.760Z,11.88
2022-09-06T21:26:14.885Z,11.81
2022-09-06T21:29:13.021Z,11.75
2022-09-06T21:32:53.599Z,11.69
2022-09-06T21:36:00.692Z,11.65
2022-09-06T21:38:39.404Z,11.61
2022-09-06T21:42:09.736Z,11.57
2022-09-06T21:45:38.746Z,11.53
2022-09-06T21:48:43.985Z,11.50
2022-09-06T21:51:48.200Z,11.48
2022-09-06T21:54:47.493Z,11.44
2022-09-06T21:57:32.849Z,11.42
2022-09-06T22:00:53.769Z,11.38
2022-09-06T22:04:20.643Z,11.36
2022-09-06T22:07:49.994Z,11.33
2022-09-06T22:10:48.025Z,11.29
2022-09-06T22:14:17.535Z,11.25
2022-09-06T22:17:24.623Z,11.22
2022-09-06T22:20:34.008Z,11.21
2022-09-06T22:23:43.401Z,11.18
2022-09-06T22:42:16.600Z,11.09
2022-09-06T22:45:49.920Z,11.05
2022-09-06T23:00:36.783Z,10.93
2022-09-06T23:03:51.700Z,10.93
2022-09-06T23:06:42.934Z,10.92
2022-09-06T23:09:34.832Z,10.90
2022-09-06T23:12:22.739Z,10.88
2022-09-06T23:15:48.524Z,10.84
2022-09-06T23:18:37.281Z,10.79
2022-09-06T23:21:34.627Z,10.77
2022-09-06T23:24:04.034Z,10.72
2022-09-06T23:27:21.921Z,10.67
2022-09-06T23:30:11.701Z,10.64
2022-09-06T23:32:51.043Z,10.62
2022-09-06T23:35:44.297Z,10.57
2022-09-06T23:38:28.474Z,10.52
2022-09-06T23:41:03.384Z,10.48
2022-09-06T23:43:46.603Z,10.43
2022-09-06T23:46:30.223Z,10.39
2022-09-06T23:49:03.127Z,10.33
2022-09-06T23:52:03.348Z,10.30
2022-09-06T23:55:23.952Z,10.29
2022-09-06T23:58:13.428Z,10.27
